CheckWX is a tool to help pilots better visualize weather data.  It is not intended as a substitute for an official pre-flight weather briefing.

07:04:36 UTC

KLNL METAR
Kings Land O' Lakes Airport
Land O' Lakes, Wisconsin, USA
Current

10 mins ago

KLNL 250655Z AUTO 00000KT 10SM CLR 17/14 A2991 RMK AO2 T01650142
Observed
May-25 @ 06:55 UTC
Visibility
Flight Rules
VFR
Cloud Levels
  • Clear skies
Temperature
16°C / 61°F
Dewpoint
14°C / 57°F
Humidity
88%
Altimeter
29.91" Hg
Pressure
1012.92 hPa
Previous

30 mins ago

KLNL 250635Z AUTO 00000KT 10SM CLR 17/15 A2991 RMK AO2 T01700150
Observed
May-25 @ 06:35 UTC
Visibility
Flight Rules
VFR
Cloud Levels
  • Clear skies
Temperature
17°C / 63°F
Dewpoint
15°C / 59°F
Humidity
88%
Altimeter
29.91" Hg
Pressure
1012.92 hPa
Previous

50 mins ago

KLNL 250615Z AUTO 00000KT 10SM SCT095 18/15 A2991 RMK AO2 T01750151
Observed
May-25 @ 06:15 UTC
Visibility
Flight Rules
VFR
Cloud Levels
  • Scattered at 9,500' AGL
Temperature
18°C / 64°F
Dewpoint
15°C / 59°F
Humidity
83%
Altimeter
29.91" Hg
Pressure
1012.92 hPa